Time;durP1;ratioP1;P1;durP2;ratioP2;P2;SDS_P1;SDS_P2;PMS_P1;PMS_P2;Temp;Humidity;BMP_temperature;BMP_pressure;BME280_temperature;BME280_humidity;BME280_pressure;Samples;Min_cycle;Max_cycle;Signal;HPM_P1;HPM_P2
2020/12/08 00:00:33;;;;;;;3.80;3.42;;;3.00;99.90;;;;;;5015356;28;20513;-82
2020/12/08 00:02:59;;;;;;;3.92;3.63;;;3.10;99.90;;;;;;5014789;28;20092;-82
2020/12/08 00:05:25;;;;;;;6.85;3.63;;;3.10;99.90;;;;;;5017456;28;20100;-82
2020/12/08 00:07:52;;;;;;;5.78;3.53;;;3.10;99.90;;;;;;5015050;28;20062;-82
2020/12/08 00:10:19;;;;;;;3.35;2.90;;;3.20;99.90;;;;;;5015977;28;20136;-83
2020/12/08 00:12:52;;;;;;;3.28;2.88;;;3.10;99.90;;;;;;5015895;28;20049;-82
2020/12/08 00:15:18;;;;;;;2.85;2.63;;;3.10;99.90;;;;;;5014986;28;20054;-82
2020/12/08 00:17:45;;;;;;;3.38;3.08;;;3.10;99.90;;;;;;5015771;28;20054;-82
2020/12/08 00:20:14;;;;;;;5.15;2.95;;;3.10;99.90;;;;;;5015797;28;20046;-82
2020/12/08 00:22:40;;;;;;;3.33;2.97;;;3.10;99.90;;;;;;5014320;28;20414;-82
2020/12/08 00:25:07;;;;;;;5.18;3.60;;;3.10;99.90;;;;;;5015422;28;20494;-82
2020/12/08 00:27:35;;;;;;;7.03;3.53;;;3.10;99.90;;;;;;5014584;28;20421;-82
2020/12/08 00:30:04;;;;;;;4.45;3.50;;;3.20;99.90;;;;;;5014283;28;20132;-82
2020/12/08 00:32:30;;;;;;;3.55;3.03;;;3.20;99.90;;;;;;5026850;28;20030;-84
2020/12/08 00:34:57;;;;;;;3.13;2.78;;;3.20;99.90;;;;;;5030395;28;20073;-82
2020/12/08 00:37:24;;;;;;;4.82;3.05;;;3.20;99.90;;;;;;5029849;28;20042;-83
2020/12/08 00:39:50;;;;;;;3.53;3.00;;;3.20;99.90;;;;;;5024926;28;20101;-83
2020/12/08 00:42:16;;;;;;;3.17;2.83;;;3.20;99.90;;;;;;5021186;28;20046;-83
2020/12/08 00:44:42;;;;;;;5.15;3.08;;;3.20;99.90;;;;;;5020859;28;20052;-83
2020/12/08 00:47:08;;;;;;;4.82;2.88;;;3.30;99.90;;;;;;5020068;28;20425;-83
2020/12/08 00:49:35;;;;;;;3.53;2.83;;;3.30;99.90;;;;;;5020372;28;20056;-83
2020/12/08 00:52:01;;;;;;;3.10;2.80;;;3.30;99.90;;;;;;5021152;28;20074;-83
2020/12/08 00:54:27;;;;;;;6.57;2.88;;;3.30;99.90;;;;;;5020855;28;20065;-83
2020/12/08 00:56:54;;;;;;;3.00;2.70;;;3.20;99.90;;;;;;5019631;28;20057;-83
2020/12/08 00:59:20;;;;;;;3.20;2.90;;;3.20;99.90;;;;;;5019495;28;20479;-83
2020/12/08 01:01:46;;;;;;;2.88;2.60;;;3.20;99.90;;;;;;5020818;28;20490;-83
2020/12/08 01:04:13;;;;;;;3.28;2.97;;;3.20;99.90;;;;;;5020313;28;20077;-84
2020/12/08 01:06:40;;;;;;;5.47;3.15;;;3.20;99.90;;;;;;5019028;28;20506;-84
2020/12/08 01:09:07;;;;;;;4.25;2.95;;;3.20;99.90;;;;;;5018648;28;20054;-84
2020/12/08 01:11:40;;;;;;;3.13;2.83;;;3.10;99.90;;;;;;5019431;28;20470;-84
2020/12/08 01:14:08;;;;;;;5.60;3.60;;;3.10;99.90;;;;;;5019301;28;20081;-84
2020/12/08 01:16:35;;;;;;;3.65;3.35;;;3.10;99.90;;;;;;5018640;28;20418;-84
2020/12/08 01:19:01;;;;;;;3.78;3.38;;;3.10;99.90;;;;;;5019410;28;20050;-84
2020/12/08 01:21:28;;;;;;;3.25;2.95;;;3.10;99.90;;;;;;5018818;28;20046;-83
2020/12/08 01:23:54;;;;;;;3.83;3.00;;;3.10;99.90;;;;;;5020227;28;20105;-84
2020/12/08 01:26:23;;;;;;;4.65;3.03;;;3.10;99.90;;;;;;5019721;28;20084;-83
2020/12/08 01:28:49;;;;;;;3.38;3.03;;;3.10;99.90;;;;;;5018284;28;20093;-84
2020/12/08 01:31:15;;;;;;;3.80;3.22;;;2.90;99.90;;;;;;5018252;28;20077;-84
2020/12/08 01:33:42;;;;;;;3.70;3.20;;;3.00;99.90;;;;;;5018258;28;20085;-84
2020/12/08 01:36:09;;;;;;;4.55;3.65;;;3.00;99.90;;;;;;5019007;28;20486;-84
2020/12/08 01:38:36;;;;;;;3.15;2.88;;;2.80;99.90;;;;;;5018112;28;20102;-83
2020/12/08 01:41:02;;;;;;;3.65;3.25;;;2.90;99.90;;;;;;5018547;28;20080;-83
2020/12/08 01:43:28;;;;;;;3.90;3.58;;;2.90;99.90;;;;;;5018703;28;20125;-83
2020/12/08 01:45:55;;;;;;;5.78;3.40;;;2.90;99.90;;;;;;5017050;28;20088;-83
2020/12/08 01:48:22;;;;;;;3.78;3.20;;;3.00;99.90;;;;;;5019103;28;20494;-84
2020/12/08 01:50:54;;;;;;;4.38;3.10;;;3.00;99.90;;;;;;5018053;28;20114;-81
2020/12/08 01:53:20;;;;;;;4.63;3.30;;;3.00;99.90;;;;;;5018866;28;20498;-80
2020/12/08 01:55:47;;;;;;;4.30;3.55;;;3.00;99.90;;;;;;5018229;28;20056;-82
2020/12/08 01:58:21;;;;;;;3.65;3.28;;;3.00;99.90;;;;;;5016981;28;20073;-83
2020/12/08 02:00:48;;;;;;;3.53;3.22;;;3.00;99.90;;;;;;5018071;28;20073;-84
2020/12/08 02:03:15;;;;;;;3.72;3.03;;;3.10;99.90;;;;;;5017786;28;20109;-83
2020/12/08 02:05:42;;;;;;;3.60;3.25;;;3.10;99.90;;;;;;5018732;28;20077;-83
2020/12/08 02:08:09;;;;;;;3.47;3.17;;;3.10;99.90;;;;;;5016634;28;20050;-81
2020/12/08 02:10:36;;;;;;;3.63;3.33;;;3.10;99.90;;;;;;5018397;28;20522;-84
2020/12/08 02:13:07;;;;;;;4.43;3.50;;;3.10;99.90;;;;;;5016491;28;20138;-83
2020/12/08 02:15:34;;;;;;;4.57;3.92;;;3.00;99.90;;;;;;5015878;28;20574;-83
2020/12/08 02:18:00;;;;;;;3.97;3.58;;;3.10;99.90;;;;;;5016884;28;20180;-84
2020/12/08 02:20:27;;;;;;;3.67;3.30;;;3.10;99.90;;;;;;5016349;28;20129;-84
2020/12/08 02:22:57;;;;;;;5.05;3.67;;;3.10;99.90;;;;;;5018179;28;20069;-85
2020/12/08 02:25:24;;;;;;;4.55;3.78;;;3.10;99.90;;;;;;5019341;28;20042;-83
2020/12/08 02:27:51;;;;;;;3.97;3.58;;;3.10;99.90;;;;;;5014869;28;20053;-83
2020/12/08 02:30:17;;;;;;;4.22;3.72;;;3.10;99.90;;;;;;5011779;28;20137;-83
2020/12/08 02:32:43;;;;;;;4.25;3.85;;;3.10;99.90;;;;;;5013020;28;20486;-82
2020/12/08 02:35:10;;;;;;;4.10;3.60;;;2.90;99.90;;;;;;5013053;28;20082;-83
2020/12/08 02:37:36;;;;;;;4.45;3.50;;;2.90;99.90;;;;;;5011729;28;20553;-83
2020/12/08 02:40:05;;;;;;;4.30;3.47;;;3.00;99.90;;;;;;5012178;28;20046;-83
2020/12/08 02:42:31;;;;;;;3.08;2.78;;;3.10;99.90;;;;;;5012283;28;20100;-82
2020/12/08 02:44:58;;;;;;;3.50;2.88;;;3.10;99.90;;;;;;5011953;28;20050;-83
2020/12/08 02:47:24;;;;;;;3.53;3.00;;;3.10;99.90;;;;;;5012200;28;20077;-83
2020/12/08 02:49:54;;;;;;;3.72;2.92;;;3.00;99.90;;;;;;5013161;28;20046;-83
2020/12/08 02:52:21;;;;;;;4.47;3.15;;;3.00;99.90;;;;;;5012784;28;20085;-83
2020/12/08 02:54:48;;;;;;;2.90;2.70;;;2.90;99.90;;;;;;5016582;28;20477;-83
2020/12/08 02:57:15;;;;;;;3.38;2.63;;;2.90;99.90;;;;;;5015520;28;20092;-84
2020/12/08 02:59:41;;;;;;;3.00;2.70;;;3.00;99.90;;;;;;5020087;28;20042;-83
2020/12/08 03:02:07;;;;;;;3.83;3.38;;;2.90;99.90;;;;;;5018165;28;20080;-83
2020/12/08 03:04:34;;;;;;;4.15;3.50;;;2.90;99.90;;;;;;5018262;28;20534;-83
2020/12/08 03:07:00;;;;;;;4.00;3.60;;;3.00;99.90;;;;;;5018666;28;20575;-83
2020/12/08 03:09:27;;;;;;;4.13;3.47;;;3.00;99.90;;;;;;5019675;28;20106;-83
2020/12/08 03:11:54;;;;;;;6.05;3.60;;;2.90;99.90;;;;;;5019570;28;20049;-83
2020/12/08 03:14:20;;;;;;;5.10;2.90;;;2.90;99.90;;;;;;5019384;28;20494;-83
2020/12/08 03:16:46;;;;;;;2.80;2.60;;;3.00;99.90;;;;;;5017964;28;20457;-83
2020/12/08 03:19:12;;;;;;;4.18;3.20;;;3.00;99.90;;;;;;5018648;28;20101;-83
2020/12/08 03:21:39;;;;;;;3.42;2.70;;;3.00;99.90;;;;;;5019224;28;20077;-83
2020/12/08 03:24:05;;;;;;;3.60;2.75;;;2.90;99.90;;;;;;5017035;28;20050;-83
2020/12/08 03:26:31;;;;;;;2.97;2.70;;;3.00;99.90;;;;;;5019086;28;20095;-81
2020/12/08 03:28:58;;;;;;;4.15;3.35;;;3.00;99.90;;;;;;5018907;28;20046;-80
2020/12/08 03:31:24;;;;;;;2.58;2.38;;;3.00;99.90;;;;;;5017468;28;20061;-80
2020/12/08 03:33:50;;;;;;;3.25;2.92;;;2.90;99.90;;;;;;5018628;28;20053;-81
2020/12/08 03:36:20;;;;;;;6.32;3.15;;;3.00;99.90;;;;;;5017134;28;20042;-83
2020/12/08 03:38:50;;;;;;;2.92;2.63;;;2.90;99.90;;;;;;5017068;28;20086;-83
2020/12/08 03:41:21;;;;;;;3.13;2.83;;;2.90;99.90;;;;;;5018578;28;20106;-83
2020/12/08 03:43:48;;;;;;;3.95;2.90;;;2.90;99.90;;;;;;5016774;28;20078;-83
2020/12/08 03:46:19;;;;;;;3.13;2.80;;;2.90;99.90;;;;;;5016570;28;20474;-82
2020/12/08 03:48:45;;;;;;;3.15;2.42;;;2.90;99.90;;;;;;5016837;28;20050;-83
2020/12/08 03:51:16;;;;;;;2.92;2.60;;;2.80;99.90;;;;;;5018302;28;20133;-83
2020/12/08 03:53:42;;;;;;;3.20;2.88;;;2.80;99.90;;;;;;5018657;28;20132;-80
2020/12/08 03:56:19;;;;;;;3.58;3.28;;;2.80;99.90;;;;;;5016788;28;20057;-81
2020/12/08 03:58:46;;;;;;;3.83;2.92;;;2.70;99.90;;;;;;5016677;28;20129;-83
2020/12/08 04:01:15;;;;;;;2.72;2.53;;;2.70;99.90;;;;;;5015948;28;20486;-83
2020/12/08 04:03:43;;;;;;;3.20;3.00;;;2.80;99.90;;;;;;5017609;28;20070;-83
2020/12/08 04:06:13;;;;;;;3.17;2.90;;;2.70;99.90;;;;;;5017730;28;20133;-83
2020/12/08 04:08:43;;;;;;;3.83;2.95;;;2.70;99.90;;;;;;5017336;28;20136;-83
2020/12/08 04:11:10;;;;;;;3.00;2.80;;;2.70;99.90;;;;;;5020534;28;20053;-85
2020/12/08 04:13:41;;;;;;;4.60;3.05;;;2.70;99.90;;;;;;5019521;28;20050;-84
2020/12/08 04:16:14;;;;;;;3.33;3.03;;;2.70;99.90;;;;;;5020005;28;20106;-84
2020/12/08 04:18:41;;;;;;;3.83;3.03;;;2.70;99.90;;;;;;5015705;28;20050;-83
2020/12/08 04:21:07;;;;;;;3.92;2.78;;;2.70;99.90;;;;;;5013468;28;20309;-82
2020/12/08 04:23:33;;;;;;;2.90;2.70;;;2.70;99.90;;;;;;5015103;28;20133;-82
2020/12/08 04:26:00;;;;;;;3.83;3.10;;;2.70;99.90;;;;;;5013751;28;20129;-81
2020/12/08 04:28:26;;;;;;;3.33;2.88;;;2.70;99.90;;;;;;5014113;28;20562;-82
2020/12/08 04:30:52;;;;;;;4.32;2.78;;;2.60;99.90;;;;;;5014081;28;20096;-82
2020/12/08 04:33:18;;;;;;;3.35;3.05;;;2.60;99.90;;;;;;5014064;28;20216;-82
2020/12/08 04:35:45;;;;;;;4.38;2.85;;;2.60;99.90;;;;;;5014937;28;20057;-82
2020/12/08 04:38:12;;;;;;;3.28;2.97;;;2.60;99.90;;;;;;5013744;28;20049;-82
2020/12/08 04:40:38;;;;;;;3.30;2.85;;;2.70;99.90;;;;;;5015628;28;20074;-82
2020/12/08 04:43:05;;;;;;;3.17;2.88;;;2.60;99.90;;;;;;5014222;28;20132;-82
2020/12/08 04:45:32;;;;;;;3.13;2.83;;;2.60;99.90;;;;;;5015223;28;20041;-82
2020/12/08 04:48:05;;;;;;;3.47;3.08;;;2.60;99.90;;;;;;5015131;28;20452;-82
2020/12/08 04:50:32;;;;;;;3.30;3.00;;;2.50;99.90;;;;;;5014342;28;20125;-82
2020/12/08 04:53:01;;;;;;;4.63;3.35;;;2.50;99.90;;;;;;5013624;28;20046;-82
2020/12/08 04:55:27;;;;;;;4.13;3.00;;;2.40;99.90;;;;;;5015202;28;20042;-82
2020/12/08 04:57:54;;;;;;;3.38;3.10;;;2.30;99.90;;;;;;5015052;28;20046;-82
2020/12/08 05:00:21;;;;;;;2.95;2.75;;;2.30;99.90;;;;;;5014843;28;20050;-81
2020/12/08 05:02:47;;;;;;;4.53;2.58;;;2.30;99.90;;;;;;5014889;28;20417;-82
2020/12/08 05:05:17;;;;;;;3.30;2.63;;;2.30;99.90;;;;;;5013580;28;20088;-81
2020/12/08 05:07:45;;;;;;;3.58;3.00;;;2.30;99.90;;;;;;5013840;28;20137;-81
2020/12/08 05:10:12;;;;;;;2.63;2.42;;;2.30;99.90;;;;;;5016063;28;20153;-82
2020/12/08 05:12:39;;;;;;;2.53;2.40;;;2.40;99.90;;;;;;5014417;28;20502;-82
2020/12/08 05:15:15;;;;;;;4.55;3.08;;;2.40;99.90;;;;;;5014898;28;20093;-82
2020/12/08 05:17:43;;;;;;;3.60;3.30;;;2.20;99.90;;;;;;5016368;28;20074;-83
2020/12/08 05:20:16;;;;;;;2.97;2.78;;;2.20;99.90;;;;;;5013681;28;20125;-82
2020/12/08 05:22:55;;;;;;;;;;;2.10;99.90;;;;;;5016861;28;20529;-82
2020/12/08 05:25:25;;;;;;;3.38;3.08;;;2.20;99.90;;;;;;5015827;28;19943;-82
2020/12/08 05:27:57;;;;;;;3.20;2.90;;;2.10;99.90;;;;;;5014027;28;20499;-82
2020/12/08 05:30:24;;;;;;;8.02;3.10;;;2.10;99.90;;;;;;5015734;28;20049;-82
2020/12/08 05:32:51;;;;;;;3.80;3.40;;;2.20;99.90;;;;;;5014158;28;20122;-83
2020/12/08 05:35:23;;;;;;;3.35;3.05;;;2.10;99.90;;;;;;5014201;28;20049;-82
2020/12/08 05:37:52;;;;;;;3.42;3.13;;;2.20;99.90;;;;;;5013440;28;20140;-81
2020/12/08 05:40:21;;;;;;;3.88;3.42;;;2.20;99.90;;;;;;5014482;28;20057;-82
2020/12/08 05:42:49;;;;;;;4.90;3.33;;;2.10;99.90;;;;;;5013988;28;20081;-82
2020/12/08 05:45:19;;;;;;;5.03;3.65;;;2.10;99.90;;;;;;5015513;28;20082;-82
2020/12/08 05:47:48;;;;;;;3.72;3.17;;;2.10;99.90;;;;;;5013753;28;20089;-83
2020/12/08 05:50:16;;;;;;;3.38;3.08;;;2.00;99.90;;;;;;5013799;28;20094;-82
2020/12/08 05:52:50;;;;;;;3.83;3.45;;;2.00;99.90;;;;;;5014925;28;20145;-82
2020/12/08 05:55:19;;;;;;;3.70;3.40;;;1.90;99.90;;;;;;5013848;28;20088;-82
2020/12/08 05:57:46;;;;;;;3.80;3.40;;;1.90;99.90;;;;;;5013751;28;20076;-82
2020/12/08 06:00:25;;;;;;;5.35;3.33;;;1.90;99.90;;;;;;5017755;28;20049;-84
2020/12/08 06:02:53;;;;;;;4.18;3.35;;;1.90;99.90;;;;;;5017952;28;20101;-83
2020/12/08 06:05:32;;;;;;;4.80;3.13;;;1.70;99.90;;;;;;5013841;28;20133;-83
2020/12/08 06:08:00;;;;;;;11.77;6.95;;;1.70;99.90;;;;;;5014613;28;20244;-83
2020/12/08 06:10:26;;;;;;;13.57;7.32;;;1.60;99.90;;;;;;5013752;28;20081;-82
2020/12/08 06:12:58;;;;;;;9.82;5.88;;;1.60;99.90;;;;;;5012018;28;20094;-82
2020/12/08 06:15:26;;;;;;;10.55;5.82;;;1.60;99.90;;;;;;5011979;28;20096;-82
2020/12/08 06:17:53;;;;;;;8.32;5.95;;;1.60;99.90;;;;;;5011423;28;20046;-82
2020/12/08 06:20:20;;;;;;;10.07;6.05;;;1.70;99.90;;;;;;5011703;28;20133;-82
2020/12/08 06:22:57;;;;;;;8.27;5.55;;;1.70;99.90;;;;;;5011853;28;20081;-82
2020/12/08 06:25:25;;;;;;;6.80;4.82;;;1.70;99.90;;;;;;5011923;28;20465;-81
2020/12/08 06:27:56;;;;;;;6.65;5.07;;;1.70;99.90;;;;;;5013148;28;20080;-82
2020/12/08 06:30:22;;;;;;;6.30;4.85;;;1.60;99.90;;;;;;5012011;28;20049;-82
2020/12/08 06:32:49;;;;;;;7.13;4.75;;;1.50;99.90;;;;;;5013223;28;20058;-82
2020/12/08 06:35:18;;;;;;;13.50;7.35;;;1.40;99.90;;;;;;5015715;28;20455;-82
2020/12/08 06:37:50;;;;;;;21.13;12.57;;;1.30;99.90;;;;;;5016565;28;20054;-82
2020/12/08 06:40:18;;;;;;;21.95;11.60;;;1.20;99.90;;;;;;5015299;28;20144;-82
2020/12/08 06:42:46;;;;;;;9.32;6.03;;;1.20;99.90;;;;;;5015379;28;20050;-82
2020/12/08 06:45:15;;;;;;;7.38;5.43;;;1.20;99.90;;;;;;5015546;28;20058;-82
2020/12/08 06:47:44;;;;;;;7.00;5.38;;;1.10;99.90;;;;;;5016385;28;20128;-82
2020/12/08 06:50:31;;;;;;;6.82;4.40;;;1.00;99.90;;;;;;5016213;28;20104;-82
2020/12/08 06:53:00;;;;;;;7.07;4.32;;;0.80;99.90;;;;;;5015359;28;20054;-82
2020/12/08 06:55:27;;;;;;;4.90;4.40;;;0.70;99.90;;;;;;5015432;28;20096;-82
2020/12/08 06:58:04;;;;;;;6.10;5.10;;;0.50;99.90;;;;;;5015082;28;20104;-82
2020/12/08 07:00:30;;;;;;;6.10;5.50;;;0.30;99.90;;;;;;5015373;28;20149;-82
2020/12/08 07:03:01;;;;;;;8.05;5.90;;;0.10;99.90;;;;;;5015991;28;20174;-82
2020/12/08 07:05:30;;;;;;;6.57;5.30;;;0.00;99.90;;;;;;5015070;28;20058;-82
2020/12/08 07:08:00;;;;;;;8.73;5.43;;;-0.10;99.90;;;;;;5014841;28;20128;-82
2020/12/08 07:10:26;;;;;;;5.78;5.18;;;-0.20;99.90;;;;;;5016330;28;20049;-82
2020/12/08 07:12:54;;;;;;;9.07;5.35;;;-0.20;99.90;;;;;;5015775;28;20574;-82
2020/12/08 07:15:25;;;;;;;7.20;5.30;;;-0.20;99.90;;;;;;5014947;28;20076;-82
2020/12/08 07:18:02;;;;;;;9.43;6.38;;;-0.30;99.90;;;;;;5015754;28;20088;-82
2020/12/08 07:20:29;;;;;;;8.20;6.15;;;-0.40;99.90;;;;;;5016223;28;20049;-82
2020/12/08 07:23:07;;;;;;;8.38;6.18;;;-0.50;99.90;;;;;;5014640;28;20069;-82
2020/12/08 07:25:34;;;;;;;12.82;8.20;;;-0.60;99.90;;;;;;5016236;28;20141;-82
2020/12/08 07:28:02;;;;;;;17.98;9.57;;;-0.60;99.90;;;;;;5016006;28;20502;-82
2020/12/08 07:30:30;;;;;;;16.77;11.20;;;-0.70;99.90;;;;;;5014757;28;20490;-82
2020/12/08 07:33:07;;;;;;;13.93;9.15;;;-0.70;99.90;;;;;;5014526;28;20145;-82
2020/12/08 07:35:36;;;;;;;13.82;9.73;;;-0.80;99.90;;;;;;5014579;28;20045;-82
2020/12/08 07:38:03;;;;;;;16.63;10.10;;;-0.80;99.90;;;;;;5014142;28;20046;-82
2020/12/08 07:40:38;;;;;;;19.80;11.40;;;-0.90;99.90;;;;;;5014157;28;20054;-82
2020/12/08 07:43:06;;;;;;;19.98;12.40;;;-0.90;99.90;;;;;;5013587;28;20060;-82
2020/12/08 07:45:40;;;;;;;18.08;11.15;;;-1.00;99.90;;;;;;5015273;28;20510;-82
2020/12/08 07:48:06;;;;;;;20.98;12.25;;;-0.90;99.90;;;;;;5013894;28;20144;-82
2020/12/08 07:50:33;;;;;;;22.75;12.27;;;-0.80;99.90;;;;;;5014010;28;20049;-82
2020/12/08 07:53:05;;;;;;;20.52;11.80;;;-0.80;99.90;;;;;;5015848;28;20054;-83
2020/12/08 07:55:40;;;;;;;58.42;18.35;;;-0.80;99.90;;;;;;5016338;28;20050;-83
2020/12/08 07:58:06;;;;;;;27.60;16.15;;;-0.70;99.90;;;;;;5015713;28;20429;-83
2020/12/08 08:00:33;;;;;;;24.98;16.55;;;-0.70;99.90;;;;;;5015942;28;20454;-83
2020/12/08 08:02:59;;;;;;;24.88;16.35;;;-0.80;99.90;;;;;;5015451;28;20053;-82
2020/12/08 08:05:26;;;;;;;19.38;12.27;;;-0.70;99.90;;;;;;5013870;28;20046;-82
2020/12/08 08:07:52;;;;;;;21.45;13.65;;;-0.70;99.90;;;;;;5013918;28;20100;-82
2020/12/08 08:10:18;;;;;;;24.90;14.43;;;-0.60;99.90;;;;;;5014522;28;20053;-82
2020/12/08 08:12:44;;;;;;;25.83;17.40;;;-0.60;99.90;;;;;;5013568;28;20132;-82
2020/12/08 08:15:11;;;;;;;21.15;14.65;;;-0.50;99.90;;;;;;5013664;28;20058;-82
2020/12/08 08:17:37;;;;;;;19.27;13.10;;;-0.50;99.90;;;;;;5013539;28;20391;-82
2020/12/08 08:20:06;;;;;;;21.83;14.00;;;-0.50;99.90;;;;;;5013347;28;20082;-83
2020/12/08 08:22:32;;;;;;;23.52;15.15;;;-0.40;99.90;;;;;;5014698;28;20188;-83
2020/12/08 08:24:59;;;;;;;23.90;15.68;;;-0.40;99.90;;;;;;5014473;28;20065;-83
2020/12/08 08:27:25;;;;;;;25.23;16.42;;;-0.40;99.90;;;;;;5014682;28;20129;-82
2020/12/08 08:29:51;;;;;;;32.00;17.05;;;-0.30;99.90;;;;;;5013585;28;20104;-82
2020/12/08 08:32:18;;;;;;;32.53;17.05;;;-0.30;99.90;;;;;;5013689;28;20046;-82
2020/12/08 08:34:44;;;;;;;24.23;15.25;;;-0.20;99.90;;;;;;5014366;28;20076;-82
2020/12/08 08:37:10;;;;;;;24.52;15.32;;;-0.10;99.90;;;;;;5014407;28;20050;-82
2020/12/08 08:39:36;;;;;;;22.50;13.73;;;0.00;99.90;;;;;;5012987;28;20042;-82
2020/12/08 08:42:02;;;;;;;22.83;13.63;;;0.00;99.90;;;;;;5012780;28;20086;-82
2020/12/08 08:44:29;;;;;;;19.50;13.60;;;0.00;99.90;;;;;;5012885;28;20057;-82
2020/12/08 08:46:55;;;;;;;18.50;11.73;;;0.00;99.90;;;;;;5012882;28;20054;-82
2020/12/08 08:49:21;;;;;;;15.68;10.20;;;0.00;99.90;;;;;;5013080;28;20047;-82
2020/12/08 08:51:48;;;;;;;18.45;11.38;;;0.00;99.90;;;;;;5013334;28;20053;-83
2020/12/08 08:54:16;;;;;;;17.98;11.00;;;0.00;99.90;;;;;;5014014;28;20085;-82
2020/12/08 08:56:43;;;;;;;19.20;12.15;;;0.00;99.90;;;;;;5013192;28;20050;-82
2020/12/08 08:59:11;;;;;;;22.23;13.50;;;0.00;99.90;;;;;;5015247;28;20125;-82
2020/12/08 09:01:38;;;;;;;18.40;12.65;;;0.00;99.90;;;;;;5013061;28;20042;-82
2020/12/08 09:04:05;;;;;;;18.25;11.63;;;0.10;99.90;;;;;;5013978;28;20061;-82
2020/12/08 09:06:31;;;;;;;17.35;10.70;;;0.10;99.90;;;;;;5012941;28;20474;-82
2020/12/08 09:08:59;;;;;;;16.92;10.70;;;0.20;99.90;;;;;;5012717;28;20053;-82
2020/12/08 09:11:27;;;;;;;19.58;12.68;;;0.10;99.90;;;;;;5013667;28;20061;-82
2020/12/08 09:13:54;;;;;;;19.45;12.43;;;0.10;99.90;;;;;;5013002;28;20100;-82
2020/12/08 09:16:23;;;;;;;19.90;12.32;;;0.10;99.90;;;;;;5012722;28;20053;-82
2020/12/08 09:18:50;;;;;;;23.95;13.00;;;0.10;99.90;;;;;;5012945;28;20485;-82
2020/12/08 09:21:17;;;;;;;24.02;12.60;;;0.10;99.90;;;;;;5013553;28;20050;-82
2020/12/08 09:23:43;;;;;;;19.67;12.45;;;0.10;99.90;;;;;;5012807;28;20053;-82
2020/12/08 09:26:09;;;;;;;23.40;13.57;;;0.00;99.90;;;;;;5013656;28;20046;-82
2020/12/08 09:28:36;;;;;;;27.75;14.18;;;0.00;99.90;;;;;;5012464;28;20046;-82
2020/12/08 09:31:02;;;;;;;23.98;15.13;;;0.00;99.90;;;;;;5012505;28;20608;-82
2020/12/08 09:33:28;;;;;;;25.65;15.57;;;0.00;99.90;;;;;;5012461;28;20518;-82
2020/12/08 09:35:55;;;;;;;22.70;14.32;;;0.10;99.90;;;;;;5013391;28;20077;-83
2020/12/08 09:38:22;;;;;;;24.95;13.85;;;0.10;99.90;;;;;;5013890;28;20085;-83
2020/12/08 09:40:49;;;;;;;29.08;16.50;;;0.10;99.90;;;;;;5012384;28;20133;-82
2020/12/08 09:43:15;;;;;;;28.90;17.83;;;0.20;99.90;;;;;;5013560;28;20078;-83
2020/12/08 09:45:41;;;;;;;31.35;19.83;;;0.20;99.90;;;;;;5015789;28;20132;-83
2020/12/08 09:48:08;;;;;;;28.70;17.33;;;0.30;99.90;;;;;;5014835;28;20053;-83
2020/12/08 09:50:34;;;;;;;28.58;15.57;;;0.30;99.90;;;;;;5014302;28;20081;-83
2020/12/08 09:53:00;;;;;;;23.15;15.27;;;0.40;99.90;;;;;;5013968;28;20120;-82
2020/12/08 09:55:26;;;;;;;21.63;14.10;;;0.40;99.90;;;;;;5012195;28;20050;-82
2020/12/08 09:57:53;;;;;;;24.50;14.90;;;0.50;99.90;;;;;;5012055;28;20046;-82
2020/12/08 10:00:19;;;;;;;27.50;17.70;;;0.50;99.90;;;;;;5012101;28;20054;-82
2020/12/08 10:02:46;;;;;;;32.35;18.40;;;0.50;99.90;;;;;;5011992;28;20077;-82
2020/12/08 10:05:12;;;;;;;27.50;17.27;;;0.50;99.90;;;;;;5012286;28;20045;-82
2020/12/08 10:07:38;;;;;;;27.00;14.48;;;0.50;99.90;;;;;;5016466;28;20053;-82
2020/12/08 10:10:06;;;;;;;29.20;14.75;;;0.50;99.90;;;;;;5017181;28;20465;-82
2020/12/08 10:12:32;;;;;;;25.65;14.23;;;0.60;99.90;;;;;;5016922;28;20080;-83
2020/12/08 10:14:59;;;;;;;30.58;14.77;;;0.60;99.90;;;;;;5017893;28;20081;-82
2020/12/08 10:17:25;;;;;;;35.35;15.27;;;0.60;99.90;;;;;;5017648;28;20054;-83
2020/12/08 10:19:51;;;;;;;31.58;14.73;;;0.60;99.90;;;;;;5015585;28;20462;-83
2020/12/08 10:22:18;;;;;;;36.42;15.90;;;0.70;99.90;;;;;;5017120;28;20045;-82
2020/12/08 10:24:44;;;;;;;34.78;16.88;;;0.70;99.90;;;;;;5016793;28;20042;-83
2020/12/08 10:27:10;;;;;;;35.33;16.63;;;0.80;99.90;;;;;;5015752;28;20137;-82
2020/12/08 10:29:37;;;;;;;33.15;16.52;;;0.90;99.90;;;;;;5016726;28;20104;-83
2020/12/08 10:32:04;;;;;;;56.92;19.60;;;1.00;99.90;;;;;;5016724;28;20533;-83
2020/12/08 10:34:31;;;;;;;111.65;23.20;;;1.10;99.90;;;;;;5016027;28;20050;-82
2020/12/08 10:36:58;;;;;;;82.95;18.75;;;1.20;99.90;;;;;;5015491;28;20045;-83
2020/12/08 10:39:24;;;;;;;73.20;18.67;;;1.40;99.90;;;;;;5015719;28;20578;-82
2020/12/08 10:41:54;;;;;;;100.72;20.58;;;1.30;99.90;;;;;;5015701;28;20053;-83
2020/12/08 10:44:21;;;;;;;68.32;18.20;;;1.20;99.90;;;;;;5016697;28;20487;-83
2020/12/08 10:46:49;;;;;;;59.75;17.70;;;1.30;99.90;;;;;;5015879;28;20056;-83
2020/12/08 10:49:16;;;;;;;30.00;14.02;;;1.40;99.90;;;;;;5016752;28;20046;-83
2020/12/08 10:51:42;;;;;;;41.45;14.27;;;1.50;99.90;;;;;;5015863;28;20093;-83
2020/12/08 10:54:09;;;;;;;32.15;13.77;;;1.60;99.90;;;;;;5022409;28;20060;-83
2020/12/08 10:56:35;;;;;;;23.90;13.63;;;1.80;99.90;;;;;;5020054;28;20056;-83
2020/12/08 10:59:01;;;;;;;29.25;13.60;;;1.90;99.90;;;;;;5018700;28;20049;-83
2020/12/08 11:01:33;;;;;;;26.60;13.07;;;2.00;99.90;;;;;;5018467;28;20061;-83
2020/12/08 11:04:00;;;;;;;24.85;12.80;;;2.10;99.90;;;;;;5017074;28;20041;-83
2020/12/08 11:06:28;;;;;;;24.63;14.07;;;2.20;99.90;;;;;;5017785;28;20068;-82
2020/12/08 11:08:58;;;;;;;29.20;15.52;;;2.20;99.90;;;;;;5016812;28;20046;-83
2020/12/08 11:11:29;;;;;;;27.65;14.60;;;2.10;99.90;;;;;;5016477;28;20100;-83
2020/12/08 11:13:56;;;;;;;26.98;14.85;;;2.20;99.90;;;;;;5017735;28;20498;-82
2020/12/08 11:16:23;;;;;;;28.65;14.23;;;2.10;99.90;;;;;;5016111;28;20088;-83
2020/12/08 11:18:50;;;;;;;20.65;13.93;;;2.30;99.90;;;;;;5015602;28;20107;-83
2020/12/08 11:21:26;;;;;;;22.38;13.52;;;2.30;99.90;;;;;;5017552;28;20559;-83
2020/12/08 11:23:53;;;;;;;26.63;14.18;;;2.40;99.90;;;;;;5017377;28;20128;-83
2020/12/08 11:26:21;;;;;;;21.40;13.80;;;2.60;99.90;;;;;;5016215;28;20133;-82
2020/12/08 11:28:47;;;;;;;21.42;13.93;;;2.80;99.90;;;;;;5015822;28;20128;-83
2020/12/08 11:31:13;;;;;;;22.05;13.13;;;3.00;99.90;;;;;;5016281;28;20494;-82
2020/12/08 11:33:44;;;;;;;16.63;12.07;;;3.30;99.90;;;;;;5016431;28;20054;-83
2020/12/08 11:36:11;;;;;;;17.90;11.82;;;4.40;99.90;;;;;;5018539;28;20588;-83
2020/12/08 11:38:37;;;;;;;14.57;10.63;;;5.20;99.90;;;;;;5015807;28;20084;-83
2020/12/08 11:41:05;;;;;;;15.68;10.60;;;5.80;99.90;;;;;;5016869;28;20045;-83
2020/12/08 11:43:32;;;;;;;13.50;9.35;;;6.20;99.90;;;;;;5017272;28;20052;-83
2020/12/08 11:45:59;;;;;;;13.73;9.05;;;6.70;99.90;;;;;;5014943;28;20495;-82
2020/12/08 11:48:26;;;;;;;14.35;9.23;;;6.50;99.90;;;;;;5013640;28;20506;-82
2020/12/08 11:50:53;;;;;;;11.25;8.07;;;6.60;99.90;;;;;;5013705;28;20053;-82
2020/12/08 11:53:19;;;;;;;12.90;9.00;;;6.60;99.90;;;;;;5015326;28;20049;-83
2020/12/08 11:55:46;;;;;;;9.90;8.02;;;7.10;99.90;;;;;;5016225;28;20399;-83
2020/12/08 11:58:13;;;;;;;9.13;7.53;;;8.10;99.90;;;;;;5017683;28;20049;-83
2020/12/08 12:00:39;;;;;;;215.43;104.72;;;9.10;99.90;;;;;;5017593;28;20101;-83
2020/12/08 12:03:05;;;;;;;9.98;8.20;;;9.70;99.90;;;;;;5017472;28;20065;-83
2020/12/08 12:05:32;;;;;;;10.88;6.80;;;9.80;99.90;;;;;;5017204;28;20414;-83
2020/12/08 12:07:58;;;;;;;7.75;6.95;;;9.70;99.90;;;;;;5016857;28;20049;-83
2020/12/08 12:10:25;;;;;;;10.07;6.55;;;9.20;99.90;;;;;;5017007;28;20111;-83
2020/12/08 12:12:51;;;;;;;16.98;9.45;;;8.60;99.90;;;;;;5017375;28;20049;-83
2020/12/08 12:15:17;;;;;;;10.25;7.15;;;8.10;99.90;;;;;;5016686;28;20057;-83
2020/12/08 12:17:44;;;;;;;20.58;10.93;;;7.20;99.90;;;;;;5015626;28;20133;-82
2020/12/08 12:20:11;;;;;;;12.43;8.50;;;6.70;99.90;;;;;;5016197;28;20085;-83
2020/12/08 12:22:37;;;;;;;15.95;10.57;;;6.20;99.90;;;;;;5015097;28;20128;-83
2020/12/08 12:25:05;;;;;;;66.10;32.03;;;5.90;99.90;;;;;;5016618;28;20172;-82
2020/12/08 12:27:31;;;;;;;15.43;10.10;;;5.30;99.90;;;;;;5016048;28;20092;-83
2020/12/08 12:29:58;;;;;;;126.05;56.30;;;5.10;99.90;;;;;;5014591;28;20049;-83
2020/12/08 12:32:25;;;;;;;27.98;16.05;;;4.90;99.90;;;;;;5014625;28;20085;-83
2020/12/08 12:34:52;;;;;;;318.17;149.13;;;4.40;99.90;;;;;;5014679;28;20050;-83
2020/12/08 12:37:19;;;;;;;137.73;63.78;;;4.00;99.90;;;;;;5016138;28;20077;-82
2020/12/08 12:39:45;;;;;;;45.88;27.38;;;3.80;99.90;;;;;;5016117;28;20101;-82
2020/12/08 12:42:13;;;;;;;102.68;55.45;;;3.80;99.90;;;;;;5014733;28;20085;-83
2020/12/08 12:44:39;;;;;;;21.45;13.77;;;4.00;99.90;;;;;;5014311;28;20085;-83
2020/12/08 12:47:05;;;;;;;22.25;11.60;;;4.10;99.90;;;;;;5014184;28;20144;-83
2020/12/08 12:49:32;;;;;;;18.70;11.57;;;4.20;99.90;;;;;;5014740;28;20137;-83